Time;durP1;ratioP1;P1;durP2;ratioP2;P2;SDS_P1;SDS_P2;PMS_P1;PMS_P2;Temp;Humidity;BMP_temperature;BMP_pressure;BME280_temperature;BME280_humidity;BME280_pressure;Samples;Min_cycle;Max_cycle;Signal;HPM_P1;HPM_P2
2021/06/16 00:02:20;;;;;;;9.73;2.90;;;15.90;99.90;;;;;;5110416;28;20039;-79
2021/06/16 00:04:47;;;;;;;13.25;3.67;;;15.90;99.90;;;;;;5075754;28;20533;-79
2021/06/16 00:07:13;;;;;;;9.75;2.70;;;15.90;99.90;;;;;;5068229;28;20152;-79
2021/06/16 00:09:39;;;;;;;10.25;3.08;;;15.80;99.90;;;;;;5089375;28;20044;-79
2021/06/16 00:12:05;;;;;;;11.35;3.00;;;15.80;99.90;;;;;;5110765;28;20085;-79
2021/06/16 00:14:31;;;;;;;13.68;3.10;;;15.80;99.90;;;;;;5072959;28;20042;-79
2021/06/16 00:16:57;;;;;;;11.93;2.47;;;15.80;99.90;;;;;;5089896;28;20051;-80
2021/06/16 00:19:23;;;;;;;13.25;3.20;;;15.80;99.90;;;;;;5096845;28;20044;-79
2021/06/16 00:21:49;;;;;;;9.60;2.80;;;15.80;99.90;;;;;;5053330;28;20122;-79
2021/06/16 00:24:18;;;;;;;13.98;3.15;;;15.80;99.90;;;;;;5088680;28;20047;-79
2021/06/16 00:26:44;;;;;;;12.45;2.65;;;15.80;99.90;;;;;;5082159;28;20032;-79
2021/06/16 00:29:10;;;;;;;14.85;3.00;;;15.80;99.90;;;;;;5083111;28;20514;-79
2021/06/16 00:31:36;;;;;;;7.00;2.63;;;15.70;99.90;;;;;;5070749;28;20047;-79
2021/06/16 00:34:02;;;;;;;10.50;2.60;;;15.80;99.90;;;;;;5072968;28;20559;-79
2021/06/16 00:36:28;;;;;;;10.75;2.63;;;15.80;99.90;;;;;;5072371;28;20040;-79
2021/06/16 00:38:53;;;;;;;9.23;2.80;;;15.80;99.90;;;;;;5099376;28;20043;-79
2021/06/16 00:41:20;;;;;;;8.98;2.78;;;15.70;99.90;;;;;;5074006;28;20125;-79
2021/06/16 00:43:46;;;;;;;8.43;2.63;;;15.70;99.90;;;;;;5068592;28;20044;-79
2021/06/16 00:46:11;;;;;;;9.52;2.55;;;15.70;99.90;;;;;;5058729;28;20498;-79
2021/06/16 00:48:37;;;;;;;13.40;3.45;;;15.60;99.90;;;;;;5101851;28;20055;-79
2021/06/16 00:51:03;;;;;;;11.27;3.50;;;15.60;99.90;;;;;;5101054;28;20525;-79
2021/06/16 00:53:29;;;;;;;7.15;2.60;;;15.50;99.90;;;;;;5071909;28;20047;-79
2021/06/16 00:55:55;;;;;;;10.73;3.10;;;15.50;99.90;;;;;;5058146;28;20043;-79
2021/06/16 00:58:21;;;;;;;14.73;3.88;;;15.50;99.90;;;;;;5069558;28;20055;-79
2021/06/16 01:01:09;;;;;;;8.55;3.50;;;15.40;99.90;;;;;;5080403;28;20048;-79
2021/06/16 01:03:37;;;;;;;11.23;2.92;;;15.40;99.90;;;;;;5091663;28;20059;-79
2021/06/16 01:06:14;;;;;;;9.20;2.80;;;15.30;99.90;;;;;;5091534;28;20113;-79
2021/06/16 01:08:52;;;;;;;13.10;3.67;;;15.30;99.90;;;;;;5109111;28;20052;-79
2021/06/16 01:11:20;;;;;;;14.88;3.22;;;15.30;99.90;;;;;;5090811;28;20039;-79
2021/06/16 01:13:52;;;;;;;12.07;3.40;;;15.20;99.90;;;;;;5091983;28;20059;-79
2021/06/16 01:16:38;;;;;;;9.75;2.90;;;15.20;99.90;;;;;;5091486;28;20050;-79
2021/06/16 01:19:31;;;;;;;10.57;3.20;;;15.20;99.90;;;;;;5091156;28;20495;-79
2021/06/16 01:22:01;;;;;;;11.20;2.70;;;15.10;99.90;;;;;;5100748;28;20040;-79
2021/06/16 01:24:30;;;;;;;9.10;3.20;;;15.10;99.90;;;;;;5085910;28;20507;-79
2021/06/16 01:26:56;;;;;;;9.60;2.80;;;15.10;99.90;;;;;;5062185;28;20084;-80
2021/06/16 01:29:33;;;;;;;12.80;4.07;;;15.10;99.90;;;;;;5067088;28;20048;-79
2021/06/16 01:32:00;;;;;;;11.25;3.42;;;15.00;99.90;;;;;;5107677;28;20047;-79
2021/06/16 01:34:27;;;;;;;9.13;3.30;;;15.00;99.90;;;;;;5091366;28;20092;-79
2021/06/16 01:36:56;;;;;;;13.35;3.08;;;15.00;99.90;;;;;;5091110;28;20095;-79
2021/06/16 01:39:25;;;;;;;9.65;2.90;;;15.10;99.90;;;;;;5109646;28;20131;-79
2021/06/16 01:41:55;;;;;;;10.20;3.25;;;15.10;99.90;;;;;;5091112;28;20056;-79
2021/06/16 01:44:22;;;;;;;10.38;3.10;;;15.10;99.90;;;;;;5091562;28;20051;-79
2021/06/16 01:46:52;;;;;;;13.77;3.65;;;15.10;99.90;;;;;;5106357;28;20071;-79
2021/06/16 01:49:21;;;;;;;9.82;2.97;;;15.10;99.90;;;;;;5088145;28;20046;-79
2021/06/16 01:51:48;;;;;;;8.88;3.35;;;15.00;99.90;;;;;;5105646;28;20047;-79
2021/06/16 01:54:16;;;;;;;10.40;2.92;;;14.90;99.90;;;;;;5074925;28;20079;-80
2021/06/16 01:56:44;;;;;;;12.05;3.60;;;14.80;99.90;;;;;;5071478;28;20035;-79
2021/06/16 01:59:11;;;;;;;9.50;3.00;;;14.80;99.90;;;;;;5090349;28;20082;-79
2021/06/16 02:01:37;;;;;;;11.85;3.63;;;14.80;99.90;;;;;;5090154;28;20039;-79
2021/06/16 02:04:04;;;;;;;9.10;3.30;;;14.80;99.90;;;;;;5056332;28;20089;-79
2021/06/16 02:06:41;;;;;;;11.05;3.53;;;14.70;99.90;;;;;;5074674;28;20052;-79
2021/06/16 02:09:09;;;;;;;10.70;3.35;;;14.70;99.90;;;;;;5089714;28;20067;-79
2021/06/16 02:11:40;;;;;;;11.32;3.47;;;14.70;99.90;;;;;;5089744;28;20077;-79
2021/06/16 02:14:09;;;;;;;9.98;3.70;;;14.70;99.90;;;;;;5057540;28;20050;-79
2021/06/16 02:16:49;;;;;;;9.13;2.97;;;14.70;99.90;;;;;;5102200;28;20052;-79
2021/06/16 02:19:21;;;;;;;9.90;3.20;;;14.60;99.90;;;;;;5099838;28;20090;-79
2021/06/16 02:21:47;;;;;;;8.35;3.30;;;14.60;99.90;;;;;;5090592;28;20043;-79
2021/06/16 02:24:13;;;;;;;10.55;3.33;;;14.60;99.90;;;;;;5069119;28;20055;-79
2021/06/16 02:26:40;;;;;;;12.93;3.20;;;14.70;99.90;;;;;;5103846;27;20093;-79
2021/06/16 02:29:07;;;;;;;13.27;3.70;;;14.70;99.90;;;;;;5105163;28;20044;-79
2021/06/16 02:31:33;;;;;;;6.68;2.88;;;14.60;99.90;;;;;;5074852;28;20048;-79
2021/06/16 02:33:59;;;;;;;10.35;3.85;;;14.70;99.90;;;;;;5107014;28;20049;-79
2021/06/16 02:36:26;;;;;;;10.88;3.22;;;14.60;99.90;;;;;;5073974;28;20509;-79
2021/06/16 02:39:00;;;;;;;12.25;3.72;;;14.70;99.90;;;;;;5106460;28;20079;-79
2021/06/16 02:41:27;;;;;;;9.13;3.70;;;14.60;99.90;;;;;;5090591;28;20052;-79
2021/06/16 02:43:55;;;;;;;10.77;3.58;;;14.70;99.90;;;;;;5055016;28;20063;-79
2021/06/16 02:46:22;;;;;;;11.02;3.42;;;14.60;99.90;;;;;;5093714;28;20062;-79
2021/06/16 02:48:50;;;;;;;10.00;3.40;;;14.60;99.90;;;;;;5072045;28;20104;-79
2021/06/16 02:51:17;;;;;;;11.82;3.42;;;14.60;99.90;;;;;;5090827;28;20491;-79
2021/06/16 02:53:45;;;;;;;8.45;2.88;;;14.50;99.90;;;;;;5089984;28;20040;-79
2021/06/16 02:56:11;;;;;;;7.03;3.17;;;14.50;99.90;;;;;;5074192;28;20116;-79
2021/06/16 02:58:42;;;;;;;14.48;3.38;;;14.50;99.90;;;;;;5106645;28;20142;-79
2021/06/16 03:01:13;;;;;;;8.75;3.28;;;14.50;99.90;;;;;;5090584;28;20515;-79
2021/06/16 03:03:41;;;;;;;12.73;3.60;;;14.40;99.90;;;;;;5090468;28;20122;-79
2021/06/16 03:06:08;;;;;;;9.95;3.33;;;14.40;99.90;;;;;;5070014;28;20529;-79
2021/06/16 03:08:35;;;;;;;9.13;3.53;;;14.40;99.90;;;;;;5106582;28;20058;-79
2021/06/16 03:11:02;;;;;;;16.05;4.57;;;14.30;99.90;;;;;;5087351;28;20044;-79
2021/06/16 03:13:30;;;;;;;7.70;3.80;;;14.30;99.90;;;;;;5102719;28;20534;-79
2021/06/16 03:15:57;;;;;;;9.75;2.97;;;14.30;99.90;;;;;;5108393;28;20079;-79
2021/06/16 03:18:23;;;;;;;8.00;3.50;;;14.30;99.90;;;;;;5085381;28;20044;-79
2021/06/16 03:20:53;;;;;;;9.75;3.65;;;14.30;99.90;;;;;;5079297;28;20109;-79
2021/06/16 03:23:20;;;;;;;9.93;3.30;;;14.30;99.90;;;;;;5090231;28;20121;-79
2021/06/16 03:25:46;;;;;;;12.02;3.58;;;14.30;99.90;;;;;;5090560;28;20529;-79
2021/06/16 03:28:14;;;;;;;10.00;3.33;;;14.30;99.90;;;;;;5093224;28;20052;-79
2021/06/16 03:30:40;;;;;;;15.75;4.68;;;14.30;99.90;;;;;;5108233;28;20134;-79
2021/06/16 03:33:07;;;;;;;9.32;3.30;;;14.40;99.90;;;;;;5098683;28;20082;-79
2021/06/16 03:35:32;;;;;;;7.82;3.42;;;14.30;99.90;;;;;;5074388;28;20048;-79
2021/06/16 03:38:01;;;;;;;9.13;3.67;;;14.30;99.90;;;;;;5070283;28;20043;-79
2021/06/16 03:40:28;;;;;;;9.05;3.40;;;14.30;99.90;;;;;;5102270;28;20131;-79
2021/06/16 03:42:56;;;;;;;9.02;3.60;;;14.30;99.90;;;;;;5079840;28;20048;-79
2021/06/16 03:45:23;;;;;;;10.43;3.72;;;14.30;99.90;;;;;;5072161;28;20051;-80
2021/06/16 03:47:53;;;;;;;10.30;3.33;;;14.30;99.90;;;;;;5085406;28;20490;-79
2021/06/16 03:50:20;;;;;;;10.55;3.80;;;14.30;99.90;;;;;;5108354;28;20044;-79
2021/06/16 03:52:46;;;;;;;11.60;3.97;;;14.30;99.90;;;;;;5108370;28;20040;-79
2021/06/16 03:55:15;;;;;;;15.30;3.92;;;14.30;99.90;;;;;;5093736;28;20043;-79
2021/06/16 03:57:42;;;;;;;9.68;3.25;;;14.30;99.90;;;;;;5098591;28;20126;-79
2021/06/16 04:00:08;;;;;;;11.52;3.85;;;14.30;99.90;;;;;;5111100;28;20043;-79
2021/06/16 04:02:35;;;;;;;12.00;4.10;;;14.30;99.90;;;;;;5093200;28;20118;-79
2021/06/16 04:05:04;;;;;;;8.95;3.25;;;14.30;99.90;;;;;;5082093;28;20040;-78
2021/06/16 04:07:32;;;;;;;9.43;3.20;;;14.30;99.90;;;;;;5104713;28;20514;-79
2021/06/16 04:09:58;;;;;;;15.10;3.83;;;14.30;99.90;;;;;;5110911;28;20070;-79
2021/06/16 04:12:24;;;;;;;9.40;3.35;;;14.30;99.90;;;;;;5088055;28;20102;-79
2021/06/16 04:14:51;;;;;;;12.05;3.92;;;14.30;99.90;;;;;;5102406;28;20059;-79
2021/06/16 04:17:22;;;;;;;9.35;3.90;;;14.30;99.90;;;;;;5091792;28;20055;-79
2021/06/16 04:19:48;;;;;;;10.68;3.60;;;14.40;99.90;;;;;;5110779;28;20050;-79
2021/06/16 04:22:15;;;;;;;12.98;3.83;;;14.40;99.90;;;;;;5107178;28;20090;-79
2021/06/16 04:24:41;;;;;;;9.60;3.42;;;14.50;99.90;;;;;;5099836;28;20593;-79
2021/06/16 04:27:07;;;;;;;5.72;3.28;;;14.60;99.90;;;;;;5066215;28;20052;-80
2021/06/16 04:29:34;;;;;;;9.88;3.47;;;14.60;99.90;;;;;;5092518;28;20051;-79
2021/06/16 04:32:00;;;;;;;12.70;3.95;;;14.70;99.90;;;;;;5107770;28;20517;-79
2021/06/16 04:34:25;;;;;;;8.85;3.60;;;14.70;99.90;;;;;;5092284;28;20043;-79
2021/06/16 04:36:51;;;;;;;9.50;3.78;;;14.80;99.90;;;;;;5083196;28;20072;-79
2021/06/16 04:39:18;;;;;;;10.23;3.95;;;14.80;99.90;;;;;;5089058;28;20036;-79
2021/06/16 04:41:45;;;;;;;9.88;3.95;;;14.80;99.90;;;;;;5108331;28;20048;-79
2021/06/16 04:44:11;;;;;;;8.02;4.00;;;14.90;99.90;;;;;;5084308;28;20055;-79
2021/06/16 04:46:41;;;;;;;11.75;3.53;;;14.90;99.90;;;;;;5092760;28;20138;-79
2021/06/16 04:49:07;;;;;;;7.30;3.72;;;14.90;99.90;;;;;;5108288;28;20594;-79
2021/06/16 04:51:32;;;;;;;8.25;4.18;;;14.90;99.90;;;;;;5110661;28;20046;-79
2021/06/16 04:53:59;;;;;;;10.45;4.40;;;14.90;99.90;;;;;;5091342;28;20043;-79
2021/06/16 04:56:26;;;;;;;9.82;4.30;;;14.90;99.90;;;;;;5039728;28;20055;-79
2021/06/16 04:58:52;;;;;;;9.60;3.88;;;14.90;99.90;;;;;;5063151;28;20051;-79
2021/06/16 05:01:19;;;;;;;9.82;4.47;;;14.90;99.90;;;;;;5057040;28;20058;-79
2021/06/16 05:03:46;;;;;;;10.32;4.00;;;15.00;99.90;;;;;;5057138;28;20064;-79
2021/06/16 05:06:12;;;;;;;10.43;4.47;;;15.00;99.90;;;;;;5084056;28;20067;-79
2021/06/16 05:08:37;;;;;;;13.02;5.05;;;15.10;99.90;;;;;;5066487;28;20048;-79
2021/06/16 05:11:03;;;;;;;11.00;4.47;;;15.10;99.90;;;;;;5090736;28;20051;-79
2021/06/16 05:13:29;;;;;;;11.70;4.43;;;15.10;99.90;;;;;;5092564;28;20109;-79
2021/06/16 05:15:55;;;;;;;8.30;4.60;;;15.10;99.90;;;;;;5086767;28;20047;-79
2021/06/16 05:18:21;;;;;;;8.50;4.22;;;15.20;99.90;;;;;;5091015;28;20097;-80
2021/06/16 05:20:47;;;;;;;14.18;5.00;;;15.20;99.90;;;;;;5054039;28;20047;-79
2021/06/16 05:23:13;;;;;;;12.68;5.70;;;15.20;99.90;;;;;;5102776;28;20470;-79
2021/06/16 05:25:41;;;;;;;10.77;4.95;;;15.30;99.90;;;;;;5086475;28;20078;-79
2021/06/16 05:28:09;;;;;;;13.38;4.63;;;15.30;99.90;;;;;;5083712;28;20048;-79
2021/06/16 05:30:36;;;;;;;11.45;4.70;;;15.30;99.90;;;;;;5103238;28;20059;-80
2021/06/16 05:33:03;;;;;;;11.27;4.82;;;15.30;99.90;;;;;;5099280;28;20098;-80
2021/06/16 05:35:29;;;;;;;10.57;4.93;;;15.30;99.90;;;;;;5083478;28;20039;-81
2021/06/16 05:37:55;;;;;;;9.20;4.30;;;15.40;99.90;;;;;;5090528;28;21015;-79
2021/06/16 05:40:21;;;;;;;14.77;6.20;;;15.40;99.90;;;;;;5107947;28;20039;-79
2021/06/16 05:42:47;;;;;;;8.75;5.15;;;15.40;99.90;;;;;;5091151;28;20046;-79
2021/06/16 05:45:13;;;;;;;11.65;5.15;;;15.50;99.90;;;;;;5109643;28;20043;-80
2021/06/16 05:47:40;;;;;;;15.00;4.70;;;15.50;99.90;;;;;;5073673;28;20502;-80
2021/06/16 05:50:07;;;;;;;12.73;4.72;;;15.50;99.90;;;;;;5091166;28;20044;-80
2021/06/16 05:52:33;;;;;;;9.20;4.72;;;15.60;99.90;;;;;;5101107;28;20040;-79
2021/06/16 05:54:59;;;;;;;8.60;5.07;;;15.60;99.90;;;;;;5101252;28;20050;-79
2021/06/16 05:57:25;;;;;;;9.40;5.15;;;15.60;99.90;;;;;;5098412;28;20048;-79
2021/06/16 05:59:51;;;;;;;9.27;5.22;;;15.60;99.90;;;;;;5065023;28;20158;-79
2021/06/16 06:02:17;;;;;;;9.00;5.03;;;15.70;99.90;;;;;;5099974;28;20558;-79
2021/06/16 06:04:43;;;;;;;16.58;6.25;;;15.70;99.90;;;;;;5079654;28;20055;-79
2021/06/16 06:07:08;;;;;;;8.95;5.32;;;15.70;99.90;;;;;;5102130;28;20427;-79
2021/06/16 06:09:37;;;;;;;11.15;5.85;;;15.80;99.90;;;;;;5083691;28;20410;-79
2021/06/16 06:12:03;;;;;;;12.25;5.18;;;15.80;99.90;;;;;;5104250;28;20050;-80
2021/06/16 06:14:29;;;;;;;12.15;5.55;;;15.80;99.90;;;;;;5104879;28;20483;-79
2021/06/16 06:16:55;;;;;;;15.75;6.30;;;15.90;99.90;;;;;;5103849;28;20039;-79
2021/06/16 06:19:22;;;;;;;16.63;6.05;;;15.90;99.90;;;;;;5105409;28;20039;-79
2021/06/16 06:21:48;;;;;;;11.52;5.82;;;15.90;99.90;;;;;;5081707;28;20069;-80
2021/06/16 06:24:14;;;;;;;13.93;6.65;;;16.00;99.90;;;;;;5081275;28;20055;-79
2021/06/16 06:26:40;;;;;;;15.77;6.57;;;16.00;99.90;;;;;;5101665;28;20035;-80
2021/06/16 06:29:06;;;;;;;11.30;5.47;;;16.00;99.90;;;;;;5064780;28;20582;-80
2021/06/16 06:31:32;;;;;;;11.23;5.95;;;16.10;99.90;;;;;;5065946;28;20119;-79
2021/06/16 06:33:58;;;;;;;10.57;6.40;;;16.10;99.90;;;;;;5102503;28;20970;-79
2021/06/16 06:36:24;;;;;;;16.55;6.43;;;16.10;99.90;;;;;;5095692;28;20123;-80
2021/06/16 06:38:50;;;;;;;13.00;6.72;;;16.20;99.90;;;;;;5070697;28;20047;-80
2021/06/16 06:41:17;;;;;;;10.45;6.38;;;16.20;99.90;;;;;;5093341;28;20078;-79
2021/06/16 06:43:43;;;;;;;10.30;6.70;;;16.20;99.90;;;;;;5103584;28;20044;-80
2021/06/16 06:46:09;;;;;;;14.68;6.78;;;16.30;99.90;;;;;;5091320;28;20044;-80
2021/06/16 06:48:37;;;;;;;16.90;7.75;;;16.30;99.90;;;;;;5103623;28;20048;-80
2021/06/16 06:51:03;;;;;;;16.30;7.18;;;16.40;99.90;;;;;;5089545;28;20048;-80
2021/06/16 06:53:29;;;;;;;12.88;7.07;;;16.40;99.90;;;;;;5089801;28;20052;-80
2021/06/16 06:55:57;;;;;;;12.80;6.18;;;16.50;99.90;;;;;;5090279;28;20093;-79
2021/06/16 06:58:23;;;;;;;23.98;7.97;;;16.50;99.90;;;;;;5106310;28;20433;-79
2021/06/16 07:00:49;;;;;;;13.82;6.53;;;16.60;99.90;;;;;;5097743;28;20051;-79
2021/06/16 07:03:15;;;;;;;13.35;7.10;;;16.60;99.90;;;;;;5088352;28;20126;-79
2021/06/16 07:05:41;;;;;;;15.30;7.18;;;16.70;99.90;;;;;;5101547;28;20139;-79
2021/06/16 07:08:07;;;;;;;15.95;7.03;;;16.70;99.90;;;;;;5085834;28;20040;-80
2021/06/16 07:10:33;;;;;;;11.48;6.32;;;16.70;99.90;;;;;;5104331;28;20044;-80
2021/06/16 07:12:59;;;;;;;16.23;7.30;;;16.80;99.90;;;;;;5096176;28;20505;-80
2021/06/16 07:15:24;;;;;;;12.80;6.80;;;16.80;99.90;;;;;;5106628;28;20114;-80
2021/06/16 07:17:50;;;;;;;10.57;6.80;;;16.80;99.90;;;;;;5088770;28;20044;-80
2021/06/16 07:20:16;;;;;;;17.20;7.50;;;16.90;99.90;;;;;;5075432;28;20495;-79
2021/06/16 07:22:46;;;;;;;14.05;6.65;;;16.90;99.90;;;;;;5068246;28;20048;-80
2021/06/16 07:25:13;;;;;;;13.52;6.80;;;17.00;99.90;;;;;;5074590;28;20044;-79
2021/06/16 07:27:39;;;;;;;11.23;7.07;;;17.10;99.90;;;;;;5101119;28;20627;-80
2021/06/16 07:30:07;;;;;;;12.13;6.72;;;17.10;99.90;;;;;;5111012;28;20047;-80
2021/06/16 07:32:34;;;;;;;12.60;6.82;;;17.20;99.90;;;;;;5111230;28;20491;-79
2021/06/16 07:34:59;;;;;;;14.07;7.25;;;17.20;99.90;;;;;;5109639;28;20721;-80
2021/06/16 07:37:26;;;;;;;12.82;6.45;;;17.20;99.90;;;;;;5109622;28;20047;-79
2021/06/16 07:39:54;;;;;;;13.15;6.55;;;17.20;99.90;;;;;;5074688;28;20093;-80
2021/06/16 07:42:21;;;;;;;13.40;6.88;;;17.30;99.90;;;;;;5091657;28;20556;-80
2021/06/16 07:44:46;;;;;;;11.68;5.47;;;17.30;99.90;;;;;;5075140;28;20046;-80
2021/06/16 07:47:12;;;;;;;17.58;6.40;;;17.40;99.90;;;;;;5109383;28;20144;-79
2021/06/16 07:49:39;;;;;;;13.63;6.35;;;17.40;99.90;;;;;;5093010;28;20047;-80
2021/06/16 07:52:05;;;;;;;12.95;6.55;;;17.40;99.90;;;;;;5093136;28;20491;-80
2021/06/16 07:54:31;;;;;;;14.98;6.18;;;17.40;99.90;;;;;;5093060;28;20116;-79
2021/06/16 07:56:56;;;;;;;14.10;6.22;;;17.50;99.90;;;;;;5111318;28;20506;-80
2021/06/16 07:59:22;;;;;;;11.63;6.03;;;17.50;99.90;;;;;;5111337;28;20498;-80
2021/06/16 08:01:48;;;;;;;11.90;4.93;;;17.50;99.90;;;;;;5110664;28;20508;-80
2021/06/16 08:04:15;;;;;;;11.50;5.60;;;17.60;99.90;;;;;;5110770;28;20053;-80
2021/06/16 08:06:41;;;;;;;9.20;4.50;;;17.70;99.90;;;;;;5111452;28;20047;-79
2021/06/16 08:09:07;;;;;;;10.43;5.90;;;17.70;99.90;;;;;;5098711;28;20392;-80
2021/06/16 08:11:33;;;;;;;10.73;5.20;;;17.80;99.90;;;;;;5093021;28;20051;-80
2021/06/16 08:13:59;;;;;;;13.82;6.18;;;17.80;99.90;;;;;;5075725;28;20047;-80
2021/06/16 08:16:25;;;;;;;11.23;5.20;;;17.80;99.90;;;;;;5092976;28;20040;-79
2021/06/16 08:18:52;;;;;;;11.73;6.30;;;17.90;99.90;;;;;;5091708;28;20044;-80
2021/06/16 08:21:19;;;;;;;13.75;4.93;;;17.90;99.90;;;;;;5101933;28;20093;-80
2021/06/16 08:23:46;;;;;;;10.82;4.93;;;18.00;99.90;;;;;;5093666;28;20052;-80
2021/06/16 08:26:13;;;;;;;10.05;5.05;;;18.10;99.90;;;;;;5108729;28;20102;-80
2021/06/16 08:28:39;;;;;;;10.65;4.82;;;18.20;99.90;;;;;;5090774;28;20043;-80
2021/06/16 08:31:05;;;;;;;13.07;5.75;;;18.20;99.90;;;;;;5118508;27;20043;-80
2021/06/16 08:33:32;;;;;;;11.38;5.40;;;18.30;99.90;;;;;;5082116;28;20590;-79
2021/06/16 08:35:58;;;;;;;10.38;5.45;;;18.30;99.90;;;;;;5088704;28;20453;-80
2021/06/16 08:38:23;;;;;;;10.55;4.72;;;18.30;99.90;;;;;;5088084;28;20127;-80
2021/06/16 08:40:49;;;;;;;12.90;5.47;;;18.40;99.90;;;;;;5102257;28;20943;-80
2021/06/16 08:43:15;;;;;;;10.65;5.43;;;18.40;99.90;;;;;;5097887;28;20495;-80
2021/06/16 08:45:42;;;;;;;12.13;4.80;;;18.40;99.90;;;;;;5092161;28;20051;-80
2021/06/16 08:48:09;;;;;;;9.23;4.38;;;18.50;99.90;;;;;;5108264;28;20058;-80
2021/06/16 08:50:36;;;;;;;15.63;3.72;;;18.50;99.90;;;;;;5109917;28;20054;-80
2021/06/16 08:53:03;;;;;;;14.75;4.93;;;18.50;99.90;;;;;;5099706;28;20123;-80
2021/06/16 08:55:29;;;;;;;14.00;5.72;;;18.50;99.90;;;;;;5104700;28;20047;-79
2021/06/16 08:57:56;;;;;;;7.97;4.60;;;18.50;99.90;;;;;;5090467;28;20047;-79
2021/06/16 09:00:23;;;;;;;13.68;5.22;;;18.60;99.90;;;;;;5095030;28;20444;-80
2021/06/16 09:02:50;;;;;;;12.40;6.18;;;18.60;99.90;;;;;;5100524;28;20071;-79
2021/06/16 09:05:16;;;;;;;7.68;4.85;;;18.60;99.90;;;;;;5104164;28;20044;-80
2021/06/16 09:07:44;;;;;;;13.80;5.68;;;18.60;99.90;;;;;;5091331;28;20518;-80
2021/06/16 09:10:16;;;;;;;11.20;5.82;;;18.70;99.90;;;;;;5090330;28;20055;-80
2021/06/16 09:13:04;;;;;;;11.82;6.10;;;18.70;99.90;;;;;;5110044;28;20062;-80
2021/06/16 09:15:31;;;;;;;14.23;5.47;;;18.80;99.90;;;;;;5109185;28;20050;-80
2021/06/16 09:18:04;;;;;;;11.68;5.03;;;18.80;99.90;;;;;;5074006;28;20054;-80
2021/06/16 09:20:36;;;;;;;13.23;3.90;;;18.90;99.90;;;;;;5109204;28;20552;-80
2021/06/16 09:23:24;;;;;;;11.07;5.47;;;18.90;99.90;;;;;;5091754;28;20053;-80
2021/06/16 09:26:05;;;;;;;11.50;4.90;;;19.00;99.90;;;;;;5109081;28;20096;-79
2021/06/16 09:28:50;;;;;;;12.13;5.22;;;19.00;99.90;;;;;;5093366;28;20039;-80
2021/06/16 09:31:20;;;;;;;11.18;4.30;;;19.10;99.90;;;;;;5106141;28;20632;-80
2021/06/16 09:33:46;;;;;;;8.23;4.50;;;19.10;99.90;;;;;;5107840;28;20047;-80
2021/06/16 09:36:18;;;;;;;11.35;4.10;;;19.10;99.90;;;;;;5107138;28;20065;-80
2021/06/16 09:38:47;;;;;;;9.98;4.28;;;19.10;99.90;;;;;;5106693;28;20112;-80
2021/06/16 09:41:15;;;;;;;10.07;4.85;;;19.10;99.90;;;;;;5109045;28;20048;-80
2021/06/16 09:43:42;;;;;;;9.60;4.82;;;19.10;99.90;;;;;;5109274;28;20043;-80
2021/06/16 09:46:10;;;;;;;8.98;5.13;;;19.20;99.90;;;;;;5108328;28;20519;-80
2021/06/16 09:48:39;;;;;;;12.38;5.68;;;19.20;99.90;;;;;;5088856;28;20113;-81
2021/06/16 09:51:38;;;;;;;8.82;4.80;;;19.30;99.90;;;;;;5109410;28;20051;-79
2021/06/16 09:54:18;;;;;;;17.98;6.38;;;19.50;99.90;;;;;;5069395;28;20044;-79
2021/06/16 09:56:54;;;;;;;13.70;6.35;;;19.60;99.90;;;;;;5108850;28;20074;-79
2021/06/16 09:59:43;;;;;;;13.13;5.47;;;19.70;99.90;;;;;;5108711;28;20068;-79
2021/06/16 10:02:19;;;;;;;8.82;5.43;;;19.80;99.90;;;;;;5107406;28;20046;-79
2021/06/16 10:04:55;;;;;;;10.63;5.68;;;19.90;99.90;;;;;;5104620;28;20055;-79
2021/06/16 10:07:28;;;;;;;11.93;6.10;;;20.10;99.90;;;;;;5087759;28;20047;-79
2021/06/16 10:10:06;;;;;;;12.50;4.95;;;20.10;99.90;;;;;;5087479;28;20052;-79
2021/06/16 10:12:36;;;;;;;8.98;6.18;;;20.10;99.90;;;;;;5075425;28;20457;-79
2021/06/16 10:15:14;;;;;;;10.23;5.78;;;20.10;99.90;;;;;;5088500;28;20055;-79
2021/06/16 10:17:41;;;;;;;11.50;6.32;;;20.10;99.90;;;;;;5087674;28;20051;-79
2021/06/16 10:20:09;;;;;;;10.75;5.88;;;20.10;99.90;;;;;;5079072;28;20078;-79
2021/06/16 10:22:34;;;;;;;10.75;6.22;;;20.10;99.90;;;;;;5064885;28;20040;-79
2021/06/16 10:25:00;;;;;;;10.50;5.63;;;20.10;99.90;;;;;;5087620;28;20093;-79
2021/06/16 10:27:40;;;;;;;8.77;5.25;;;20.10;99.90;;;;;;5051794;28;20059;-79
2021/06/16 10:30:16;;;;;;;9.55;5.40;;;20.20;99.90;;;;;;5086568;28;20044;-80
2021/06/16 10:32:44;;;;;;;9.30;5.95;;;20.20;99.90;;;;;;5068027;28;20403;-79
2021/06/16 10:35:12;;;;;;;6.90;5.30;;;20.20;99.90;;;;;;5087105;28;20423;-79
2021/06/16 10:37:43;;;;;;;10.88;5.43;;;20.30;99.90;;;;;;5067600;28;20075;-81
2021/06/16 10:40:19;;;;;;;8.80;4.68;;;20.30;99.90;;;;;;5063846;28;20102;-81
2021/06/16 10:43:03;;;;;;;6.25;4.47;;;20.40;99.90;;;;;;5078790;28;20047;-79
2021/06/16 10:45:57;;;;;;;7.20;4.43;;;20.30;99.90;;;;;;5083295;28;20035;-79
2021/06/16 10:48:45;;;;;;;7.78;5.30;;;20.40;99.90;;;;;;5071591;28;20048;-79
2021/06/16 10:51:22;;;;;;;10.40;5.72;;;20.30;99.90;;;;;;5085065;28;20135;-79
2021/06/16 10:54:11;;;;;;;11.32;5.40;;;20.30;99.90;;;;;;5086486;28;20131;-79
2021/06/16 10:56:55;;;;;;;12.43;5.68;;;20.30;99.90;;;;;;5086903;28;20032;-79
2021/06/16 10:59:42;;;;;;;9.55;4.20;;;20.30;99.90;;;;;;5087291;28;20082;-79
2021/06/16 11:02:12;;;;;;;7.15;4.97;;;20.40;99.90;;;;;;5091050;28;20036;-79
2021/06/16 11:04:38;;;;;;;9.13;4.65;;;20.40;99.90;;;;;;5098325;28;20402;-80
2021/06/16 11:07:30;;;;;;;7.13;4.82;;;20.40;99.90;;;;;;5091095;28;20063;-79
2021/06/16 11:09:58;;;;;;;11.32;3.97;;;20.40;99.90;;;;;;5090764;28;20117;-80
2021/06/16 11:12:37;;;;;;;6.53;4.22;;;20.40;99.90;;;;;;5074306;28;20079;-80
2021/06/16 11:15:11;;;;;;;6.57;4.13;;;20.40;99.90;;;;;;5074115;28;20039;-79
2021/06/16 11:17:38;;;;;;;10.45;4.32;;;20.40;99.90;;;;;;5091202;28;20052;-79
2021/06/16 11:20:06;;;;;;;7.18;3.70;;;20.50;99.90;;;;;;5090380;28;20051;-80
2021/06/16 11:22:38;;;;;;;9.35;3.72;;;20.60;99.90;;;;;;5091368;28;20051;-80
2021/06/16 11:25:07;;;;;;;6.65;4.70;;;20.60;99.90;;;;;;5072796;28;20115;-79
2021/06/16 11:30:41;;;;;;;6.55;4.40;;;20.60;99.90;;;;;;5089600;28;20048;-80
2021/06/16 11:33:19;;;;;;;11.38;4.13;;;20.70;99.90;;;;;;5089780;28;20044;-79
2021/06/16 11:36:00;;;;;;;8.35;4.47;;;20.70;99.90;;;;;;5089170;28;20527;-80
2021/06/16 11:38:27;;;;;;;6.63;4.18;;;20.60;99.90;;;;;;5090180;28;20551;-79
2021/06/16 11:41:03;;;;;;;6.30;4.18;;;20.70;99.90;;;;;;5081677;28;20044;-79
2021/06/16 11:43:39;;;;;;;12.02;5.55;;;20.60;99.90;;;;;;5084133;28;20068;-79
2021/06/16 11:46:18;;;;;;;6.30;3.92;;;20.70;99.90;;;;;;5078862;28;20052;-79
2021/06/16 11:48:48;;;;;;;9.73;4.30;;;20.80;99.90;;;;;;5088640;28;20109;-80
2021/06/16 11:51:32;;;;;;;11.50;4.28;;;20.90;99.90;;;;;;5046416;28;20193;-80
2021/06/16 11:54:04;;;;;;;7.55;3.70;;;20.90;99.90;;;;;;5087924;28;20071;-80
2021/06/16 11:56:38;;;;;;;7.40;3.33;;;20.90;99.90;;;;;;5084502;28;20040;-79
2021/06/16 11:59:04;;;;;;;5.07;3.28;;;20.80;99.90;;;;;;5085382;28;20055;-80
2021/06/16 12:01:30;;;;;;;7.63;2.97;;;20.80;99.90;;;;;;5086789;28;20036;-80
2021/06/16 12:04:00;;;;;;;5.00;3.38;;;20.80;99.90;;;;;;5081027;28;20043;-80
2021/06/16 12:06:26;;;;;;;6.78;3.65;;;20.90;99.90;;;;;;5084469;28;20032;-79
2021/06/16 12:08:58;;;;;;;8.38;3.63;;;20.90;99.90;;;;;;5107616;28;20483;-80
2021/06/16 12:11:30;;;;;;;6.35;2.78;;;21.00;99.90;;;;;;5106082;28;20407;-80
2021/06/16 12:13:57;;;;;;;5.43;3.25;;;21.30;99.90;;;;;;5091424;28;20040;-79
2021/06/16 12:16:40;;;;;;;4.85;3.13;;;21.30;99.90;;;;;;5108161;28;20044;-79
2021/06/16 12:19:20;;;;;;;8.23;3.10;;;21.50;99.90;;;;;;5107763;28;20495;-80
2021/06/16 12:22:03;;;;;;;5.97;3.05;;;21.70;99.90;;;;;;5091512;28;20051;-79
2021/06/16 12:24:30;;;;;;;4.32;3.13;;;21.80;99.90;;;;;;5083918;28;20047;-79
2021/06/16 12:27:01;;;;;;;5.28;2.70;;;21.80;99.90;;;;;;5093770;28;20131;-79
2021/06/16 12:29:28;;;;;;;7.93;3.28;;;21.70;99.90;;;;;;5104227;28;20185;-78
2021/06/16 12:31:56;;;;;;;6.07;2.60;;;21.60;99.90;;;;;;5072017;28;20075;-79
2021/06/16 12:34:41;;;;;;;9.60;3.25;;;21.60;99.90;;;;;;5074437;28;20055;-79
2021/06/16 12:37:16;;;;;;;9.90;2.88;;;21.50;99.90;;;;;;5093824;28;20040;-79
2021/06/16 12:39:55;;;;;;;4.32;3.10;;;21.60;99.90;;;;;;5106250;28;20047;-79
2021/06/16 12:42:21;;;;;;;8.93;3.25;;;21.70;99.90;;;;;;5105454;28;20051;-79
2021/06/16 12:44:46;;;;;;;5.95;2.75;;;21.70;99.90;;;;;;5102565;28;20054;-80
2021/06/16 12:47:19;;;;;;;5.78;2.50;;;21.80;99.90;;;;;;5108691;28;20585;-79
2021/06/16 12:50:03;;;;;;;6.88;3.40;;;21.80;99.90;;;;;;5107480;28;20046;-79
2021/06/16 12:52:33;;;;;;;5.53;2.70;;;21.90;99.90;;;;;;5092162;28;20548;-79
2021/06/16 12:55:14;;;;;;;5.40;2.47;;;21.90;99.90;;;;;;5075246;28;20036;-79